createdAt,value
2019-05-20T00:00:00.000Z,74.40
2019-05-20T00:01:00.000Z,74.04
2019-05-20T00:02:00.000Z,74.49
2019-05-20T00:03:00.000Z,75.14
2019-05-20T00:04:00.000Z,76.43
2019-05-20T00:05:00.000Z,76.06
2019-05-20T00:06:00.000Z,74.83
2019-05-20T00:07:00.000Z,74.90
2019-05-20T00:08:00.000Z,75.63
2019-05-20T00:09:00.000Z,75.42
2019-05-20T00:10:00.000Z,75.08
2019-05-20T00:11:00.000Z,75.90
2019-05-20T00:12:00.000Z,76.13
2019-05-20T00:13:00.000Z,75.17
2019-05-20T00:14:00.000Z,75.61
2019-05-20T00:15:00.000Z,75.13
2019-05-20T00:16:00.000Z,75.28
2019-05-20T00:17:00.000Z,74.79
2019-05-20T00:18:00.000Z,74.89
2019-05-20T00:19:00.000Z,74.88
2019-05-20T00:20:00.000Z,74.95
2019-05-20T00:21:00.000Z,75.39
2019-05-20T00:22:00.000Z,74.63
2019-05-20T00:23:00.000Z,74.73
2019-05-20T00:24:00.000Z,74.60
2019-05-20T00:25:00.000Z,74.46
2019-05-20T00:26:00.000Z,75.55
2019-05-20T00:27:00.000Z,74.90
2019-05-20T00:28:00.000Z,74.98
2019-05-20T00:29:00.000Z,75.18
2019-05-20T00:30:00.000Z,75.01
2019-05-20T00:31:00.000Z,75.43
2019-05-20T00:32:00.000Z,75.35
2019-05-20T00:33:00.000Z,74.85
2019-05-20T00:34:00.000Z,74.71
2019-05-20T00:35:00.000Z,74.47
2019-05-20T00:36:00.000Z,74.52
2019-05-20T00:37:00.000Z,74.90
2019-05-20T00:38:00.000Z,74.69
2019-05-20T00:39:00.000Z,74.93
2019-05-20T00:40:00.000Z,74.54
2019-05-20T00:41:00.000Z,74.56
2019-05-20T00:42:00.000Z,75.09
2019-05-20T00:43:00.000Z,74.99
2019-05-20T00:44:00.000Z,74.72
2019-05-20T00:45:00.000Z,75.03
2019-05-20T00:46:00.000Z,75.17
2019-05-20T00:47:00.000Z,75.39
2019-05-20T00:48:00.000Z,75.74
2019-05-20T00:49:00.000Z,75.93
2019-05-20T00:50:00.000Z,76.03
2019-05-20T00:51:00.000Z,76.00
2019-05-20T00:52:00.000Z,76.49
2019-05-20T00:53:00.000Z,76.39
2019-05-20T00:54:00.000Z,76.05
2019-05-20T00:55:00.000Z,75.80
2019-05-20T00:56:00.000Z,75.94
2019-05-20T00:57:00.000Z,76.26
2019-05-20T00:58:00.000Z,76.23
2019-05-20T00:59:00.000Z,76.12
2019-05-20T01:00:00.000Z,76.15
2019-05-20T01:01:00.000Z,76.01
2019-05-20T01:02:00.000Z,75.64
2019-05-20T01:03:00.000Z,75.54
2019-05-20T01:04:00.000Z,76.02
2019-05-20T01:05:00.000Z,76.17
2019-05-20T01:06:00.000Z,76.47
2019-05-20T01:07:00.000Z,76.89
2019-05-20T01:08:00.000Z,76.12
2019-05-20T01:09:00.000Z,76.20
2019-05-20T01:10:00.000Z,76.03
2019-05-20T01:11:00.000Z,76.05
2019-05-20T01:12:00.000Z,76.18
2019-05-20T01:13:00.000Z,76.11
2019-05-20T01:14:00.000Z,75.87
2019-05-20T01:15:00.000Z,76.09
2019-05-20T01:16:00.000Z,76.74
2019-05-20T01:17:00.000Z,76.51
2019-05-20T01:18:00.000Z,76.34
2019-05-20T01:19:00.000Z,76.84
2019-05-20T01:20:00.000Z,77.17
2019-05-20T01:21:00.000Z,76.66
2019-05-20T01:22:00.000Z,77.01
2019-05-20T01:23:00.000Z,76.92
2019-05-20T01:24:00.000Z,76.86
2019-05-20T01:25:00.000Z,77.10
2019-05-20T01:26:00.000Z,77.01
2019-05-20T01:27:00.000Z,77.05
2019-05-20T01:28:00.000Z,77.20
2019-05-20T01:29:00.000Z,76.93
2019-05-20T01:30:00.000Z,76.63
2019-05-20T01:31:00.000Z,76.95
2019-05-20T01:32:00.000Z,77.24
2019-05-20T01:33:00.000Z,76.65
2019-05-20T01:34:00.000Z,77.01
2019-05-20T01:35:00.000Z,77.04
2019-05-20T01:36:00.000Z,77.82
2019-05-20T01:37:00.000Z,77.32
2019-05-20T01:38:00.000Z,76.95
2019-05-20T01:39:00.000Z,76.68
2019-05-20T01:40:00.000Z,76.94
2019-05-20T01:41:00.000Z,77.12
2019-05-20T01:42:00.000Z,76.74
2019-05-20T01:43:00.000Z,76.28
2019-05-20T01:44:00.000Z,76.54
2019-05-20T01:45:00.000Z,76.35
2019-05-20T01:46:00.000Z,76.16
2019-05-20T01:47:00.000Z,75.73
2019-05-20T01:48:00.000Z,75.61
2019-05-20T01:49:00.000Z,75.61
2019-05-20T01:50:00.000Z,75.48
2019-05-20T01:51:00.000Z,75.41
2019-05-20T01:52:00.000Z,75.41
2019-05-20T01:53:00.000Z,75.40
2019-05-20T01:54:00.000Z,75.27
2019-05-20T01:55:00.000Z,75.35
2019-05-20T01:56:00.000Z,76.11
2019-05-20T01:57:00.000Z,76.65
2019-05-20T01:58:00.000Z,75.87
2019-05-20T01:59:00.000Z,75.48
2019-05-20T02:00:00.000Z,75.52
2019-05-20T02:01:00.000Z,75.33
2019-05-20T02:02:00.000Z,75.19
2019-05-20T02:03:00.000Z,75.08
2019-05-20T02:04:00.000Z,75.26
2019-05-20T02:05:00.000Z,75.21
2019-05-20T02:06:00.000Z,75.72
2019-05-20T02:07:00.000Z,75.49
2019-05-20T02:08:00.000Z,75.75
2019-05-20T02:09:00.000Z,75.63
2019-05-20T02:10:00.000Z,75.61
2019-05-20T02:11:00.000Z,75.43
2019-05-20T02:12:00.000Z,75.41
2019-05-20T02:13:00.000Z,76.01
2019-05-20T02:14:00.000Z,76.44
2019-05-20T02:15:00.000Z,76.14
2019-05-20T02:16:00.000Z,75.83
2019-05-20T02:17:00.000Z,75.83
2019-05-20T02:18:00.000Z,75.81
2019-05-20T02:19:00.000Z,75.87
2019-05-20T02:20:00.000Z,75.73
2019-05-20T02:21:00.000Z,75.97
2019-05-20T02:21:59.000Z,75.90
2019-05-20T02:23:00.000Z,76.14
2019-05-20T02:24:00.000Z,76.37
2019-05-20T02:25:00.000Z,77.32
2019-05-20T02:26:00.000Z,77.97
2019-05-20T02:27:00.000Z,77.41
2019-05-20T02:28:00.000Z,76.92
2019-05-20T02:29:00.000Z,76.75
2019-05-20T02:30:00.000Z,76.78
2019-05-20T02:31:00.000Z,76.70
2019-05-20T02:32:00.000Z,76.59
2019-05-20T02:33:00.000Z,77.50
2019-05-20T02:34:00.000Z,77.57
2019-05-20T02:35:00.000Z,77.24
2019-05-20T02:36:00.000Z,77.13
2019-05-20T02:37:00.000Z,77.02
2019-05-20T02:38:00.000Z,77.18
2019-05-20T02:39:00.000Z,77.27
2019-05-20T02:40:00.000Z,77.05
2019-05-20T02:41:00.000Z,78.16
2019-05-20T02:42:00.000Z,78.30
2019-05-20T02:43:00.000Z,79.10
2019-05-20T02:44:00.000Z,78.86
2019-05-20T02:45:00.000Z,78.56
2019-05-20T02:46:00.000Z,78.09
2019-05-20T02:47:00.000Z,78.10
2019-05-20T02:48:00.000Z,78.28
2019-05-20T02:49:00.000Z,78.05
2019-05-20T02:50:00.000Z,78.04
2019-05-20T02:51:00.000Z,78.23
2019-05-20T02:52:00.000Z,78.45
2019-05-20T02:53:00.000Z,78.26
2019-05-20T02:54:00.000Z,78.18
2019-05-20T02:55:00.000Z,78.38
2019-05-20T02:56:00.000Z,78.34
2019-05-20T02:57:00.000Z,78.18
2019-05-20T02:58:00.000Z,79.39
2019-05-20T02:59:00.000Z,79.00
2019-05-20T03:00:00.000Z,79.22
2019-05-20T03:01:00.000Z,80.87
2019-05-20T03:02:00.000Z,80.31
2019-05-20T03:03:00.000Z,80.64
2019-05-20T03:04:00.000Z,80.19
2019-05-20T03:05:00.000Z,80.43
2019-05-20T03:06:00.000Z,80.08
2019-05-20T03:07:00.000Z,79.65
2019-05-20T03:08:00.000Z,81.73
2019-05-20T03:09:00.000Z,82.22
2019-05-20T03:10:00.000Z,81.61
2019-05-20T03:11:00.000Z,81.25
2019-05-20T03:12:00.000Z,81.94
2019-05-20T03:13:00.000Z,81.47
2019-05-20T03:14:00.000Z,81.05
2019-05-20T03:15:00.000Z,81.28
2019-05-20T03:16:00.000Z,80.65
2019-05-20T03:17:00.000Z,81.39
2019-05-20T03:18:00.000Z,81.45
2019-05-20T03:19:00.000Z,80.74
2019-05-20T03:20:00.000Z,80.28
2019-05-20T03:21:00.000Z,80.21
2019-05-20T03:22:00.000Z,80.08
2019-05-20T03:23:00.000Z,80.64
2019-05-20T03:24:00.000Z,79.89
2019-05-20T03:25:00.000Z,81.27
2019-05-20T03:26:00.000Z,82.02
2019-05-20T03:27:00.000Z,81.52
2019-05-20T03:28:00.000Z,82.72
2019-05-20T03:29:00.000Z,83.37
2019-05-20T03:30:00.000Z,82.92
2019-05-20T03:31:00.000Z,83.46
2019-05-20T03:32:00.000Z,83.24
2019-05-20T03:33:00.000Z,82.60
2019-05-20T03:34:00.000Z,82.08
2019-05-20T03:35:00.000Z,82.23
2019-05-20T03:36:00.000Z,82.87
2019-05-20T03:37:00.000Z,82.01
2019-05-20T03:38:00.000Z,83.07
2019-05-20T03:39:00.000Z,82.53
2019-05-20T03:40:00.000Z,83.03
2019-05-20T03:41:00.000Z,82.89
2019-05-20T03:42:00.000Z,82.56
2019-05-20T03:43:00.000Z,82.70
2019-05-20T03:44:00.000Z,82.21
2019-05-20T03:45:00.000Z,81.83
2019-05-20T03:46:00.000Z,81.85
2019-05-20T03:47:00.000Z,81.60
2019-05-20T03:48:00.000Z,81.41
2019-05-20T03:49:00.000Z,82.01
2019-05-20T03:50:00.000Z,82.04
2019-05-20T03:51:00.000Z,82.44
2019-05-20T03:52:00.000Z,83.09
2019-05-20T03:53:00.000Z,82.64
2019-05-20T03:54:00.000Z,81.91
2019-05-20T03:55:00.000Z,81.78
2019-05-20T03:56:00.000Z,81.65
2019-05-20T03:57:00.000Z,82.35
2019-05-20T03:58:00.000Z,81.80
2019-05-20T03:59:00.000Z,81.44
2019-05-20T04:00:00.000Z,81.25
2019-05-20T04:01:00.000Z,81.05
2019-05-20T04:02:00.000Z,81.45
2019-05-20T04:03:00.000Z,81.21
2019-05-20T04:04:00.000Z,81.57
2019-05-20T04:05:00.000Z,81.96
2019-05-20T04:06:00.000Z,82.21
2019-05-20T04:07:00.000Z,81.92
2019-05-20T04:08:00.000Z,81.50
2019-05-20T04:09:00.000Z,81.25
2019-05-20T04:10:00.000Z,80.92
2019-05-20T04:11:00.000Z,82.40
2019-05-20T04:13:00.000Z,82.85
2019-05-20T04:14:00.000Z,82.71
2019-05-20T04:15:00.000Z,83.41
2019-05-20T04:16:00.000Z,84.46
2019-05-20T04:17:00.000Z,83.62
2019-05-20T04:18:00.000Z,83.22
2019-05-20T04:19:00.000Z,82.88
2019-05-20T04:20:00.000Z,83.37
2019-05-20T04:21:00.000Z,82.99
2019-05-20T04:22:00.000Z,83.46
2019-05-20T04:23:00.000Z,82.88
2019-05-20T04:24:00.000Z,83.08
2019-05-20T04:25:00.000Z,82.40
2019-05-20T04:26:00.000Z,83.17
2019-05-20T04:27:00.000Z,83.91
2019-05-20T04:28:00.000Z,83.98
2019-05-20T04:29:00.000Z,84.26
2019-05-20T04:30:00.000Z,83.53
2019-05-20T04:31:00.000Z,82.85
2019-05-20T04:32:00.000Z,83.02
2019-05-20T04:33:00.000Z,83.05
2019-05-20T04:34:00.000Z,82.78
2019-05-20T04:35:00.000Z,83.02
2019-05-20T04:36:00.000Z,82.41
2019-05-20T04:37:00.000Z,82.39
2019-05-20T04:38:00.000Z,82.11
2019-05-20T04:39:00.000Z,82.49
2019-05-20T04:40:00.000Z,82.41
2019-05-20T04:41:00.000Z,82.29
2019-05-20T04:42:00.000Z,82.30
2019-05-20T04:43:00.000Z,82.28
2019-05-20T04:44:00.000Z,82.14
2019-05-20T04:45:00.000Z,81.68
2019-05-20T04:46:00.000Z,81.39
2019-05-20T04:47:00.000Z,82.39
2019-05-20T04:48:00.000Z,82.37
2019-05-20T04:49:00.000Z,83.25
2019-05-20T04:50:00.000Z,83.11
2019-05-20T04:51:00.000Z,83.24
2019-05-20T04:52:00.000Z,82.79
2019-05-20T04:53:00.000Z,82.66
2019-05-20T04:54:00.000Z,82.99
2019-05-20T04:55:00.000Z,83.08
2019-05-20T04:56:00.000Z,83.29
2019-05-20T04:57:00.000Z,83.30
2019-05-20T04:58:00.000Z,83.27
2019-05-20T04:59:00.000Z,83.26
2019-05-20T05:00:00.000Z,82.87
2019-05-20T05:01:00.000Z,84.35
2019-05-20T05:02:00.000Z,83.68
2019-05-20T05:03:00.000Z,84.32
2019-05-20T05:04:00.000Z,84.61
2019-05-20T05:05:00.000Z,84.83
2019-05-20T05:06:00.000Z,85.44
2019-05-20T05:07:00.000Z,86.23
2019-05-20T05:08:00.000Z,85.96
2019-05-20T05:09:00.000Z,86.34
2019-05-20T05:09:59.000Z,85.88
2019-05-20T05:10:59.000Z,86.05
2019-05-20T05:11:59.000Z,86.27
2019-05-20T05:12:59.000Z,85.65
2019-05-20T05:13:59.000Z,85.73
2019-05-20T05:14:59.000Z,85.60
2019-05-20T05:15:59.000Z,85.87
2019-05-20T05:16:59.000Z,86.39
2019-05-20T05:17:59.000Z,86.49
2019-05-20T05:18:59.000Z,86.78
2019-05-20T05:19:59.000Z,86.33
2019-05-20T05:20:59.000Z,86.17
2019-05-20T05:21:59.000Z,86.56
2019-05-20T05:22:59.000Z,86.61
2019-05-20T05:23:59.000Z,86.37
2019-05-20T05:24:59.000Z,85.72
2019-05-20T05:25:59.000Z,85.38
2019-05-20T05:26:59.000Z,85.11
2019-05-20T05:27:59.000Z,85.36
2019-05-20T05:28:59.000Z,84.78
2019-05-20T05:29:59.000Z,84.76
2019-05-20T05:30:59.000Z,84.73
2019-05-20T05:31:59.000Z,84.82
2019-05-20T05:32:59.000Z,85.00
2019-05-20T05:33:59.000Z,84.89
2019-05-20T05:34:59.000Z,84.55
2019-05-20T05:35:59.000Z,85.01
2019-05-20T05:36:59.000Z,84.39
2019-05-20T05:37:59.000Z,85.01
2019-05-20T05:38:59.000Z,84.25
2019-05-20T05:39:59.000Z,83.82
2019-05-20T05:41:00.000Z,84.21
2019-05-20T05:42:00.000Z,83.51
2019-05-20T05:43:00.000Z,83.64
2019-05-20T05:44:00.000Z,84.11
2019-05-20T05:45:00.000Z,83.67
2019-05-20T05:46:00.000Z,83.16
2019-05-20T05:47:00.000Z,82.83
2019-05-20T05:48:00.000Z,83.04
2019-05-20T05:49:00.000Z,83.04
2019-05-20T05:50:00.000Z,82.89
2019-05-20T05:51:00.000Z,82.67
2019-05-20T05:52:00.000Z,83.01
2019-05-20T05:53:00.000Z,82.82
2019-05-20T05:54:00.000Z,82.15
2019-05-20T05:55:00.000Z,81.51
2019-05-20T05:56:00.000Z,81.11
2019-05-20T05:57:00.000Z,81.36
2019-05-20T05:58:00.000Z,81.20
2019-05-20T05:59:00.000Z,80.96
2019-05-20T06:00:00.000Z,81.07
2019-05-20T06:01:00.000Z,81.40
2019-05-20T06:02:00.000Z,81.16
2019-05-20T06:03:00.000Z,81.14
2019-05-20T06:04:00.000Z,81.05
2019-05-20T06:05:00.000Z,81.53
2019-05-20T06:06:00.000Z,81.06
2019-05-20T06:07:00.000Z,81.77
2019-05-20T06:08:00.000Z,81.52
2019-05-20T06:09:00.000Z,81.67
2019-05-20T06:10:00.000Z,81.43
2019-05-20T06:11:00.000Z,81.20
2019-05-20T06:12:00.000Z,81.12
2019-05-20T06:13:00.000Z,80.86
2019-05-20T06:14:00.000Z,81.09
2019-05-20T06:15:00.000Z,80.91
2019-05-20T06:16:00.000Z,81.99
2019-05-20T06:17:00.000Z,81.58
2019-05-20T06:18:00.000Z,81.70
2019-05-20T06:19:00.000Z,81.64
2019-05-20T06:20:00.000Z,81.16
2019-05-20T06:21:00.000Z,81.25
2019-05-20T06:22:00.000Z,81.08
2019-05-20T06:23:00.000Z,80.54
2019-05-20T06:24:00.000Z,80.98
2019-05-20T06:25:00.000Z,81.23
2019-05-20T06:26:00.000Z,81.17
2019-05-20T06:27:00.000Z,81.28
2019-05-20T06:28:00.000Z,81.33
2019-05-20T06:29:00.000Z,81.35
2019-05-20T06:30:00.000Z,81.04
2019-05-20T06:31:00.000Z,81.32
2019-05-20T06:32:00.000Z,81.38
2019-05-20T06:33:00.000Z,81.77
2019-05-20T06:34:00.000Z,81.63
2019-05-20T06:35:00.000Z,81.64
2019-05-20T06:36:00.000Z,81.62
2019-05-20T06:37:00.000Z,81.44
2019-05-20T06:38:00.000Z,81.24
2019-05-20T06:39:00.000Z,80.71
2019-05-20T06:40:00.000Z,80.68
2019-05-20T06:41:00.000Z,80.78
2019-05-20T06:41:59.000Z,81.43
2019-05-20T06:42:59.000Z,81.66
2019-05-20T06:43:59.000Z,81.22
2019-05-20T06:44:59.000Z,80.76
2019-05-20T06:45:59.000Z,81.10
2019-05-20T06:46:59.000Z,80.78
2019-05-20T06:47:59.000Z,80.63
2019-05-20T06:48:59.000Z,80.96
2019-05-20T06:49:59.000Z,80.75
2019-05-20T06:50:59.000Z,80.99
2019-05-20T06:51:59.000Z,80.93
2019-05-20T06:52:59.000Z,80.94
2019-05-20T06:53:59.000Z,80.71
2019-05-20T06:54:59.000Z,80.31
2019-05-20T06:55:59.000Z,80.49
2019-05-20T06:56:59.000Z,80.07
2019-05-20T06:57:59.000Z,80.07
2019-05-20T06:58:59.000Z,80.35
2019-05-20T06:59:59.000Z,80.43
2019-05-20T07:00:59.000Z,80.38
2019-05-20T07:01:59.000Z,80.41
2019-05-20T07:02:59.000Z,80.46
2019-05-20T07:03:59.000Z,81.02
2019-05-20T07:04:59.000Z,80.17
2019-05-20T07:05:59.000Z,80.20
2019-05-20T07:06:59.000Z,80.39
2019-05-20T07:07:59.000Z,80.25
2019-05-20T07:08:59.000Z,80.51
2019-05-20T07:09:59.000Z,80.38
2019-05-20T07:10:59.000Z,79.09
2019-05-20T07:11:59.000Z,79.16
2019-05-20T07:13:00.000Z,79.34
2019-05-20T07:14:00.000Z,79.22
2019-05-20T07:15:00.000Z,79.17
2019-05-20T07:16:00.000Z,79.41
2019-05-20T07:17:00.000Z,78.35
2019-05-20T07:18:00.000Z,78.39
2019-05-20T07:19:00.000Z,79.02
2019-05-20T07:20:00.000Z,78.75
2019-05-20T07:21:00.000Z,78.84
2019-05-20T07:22:00.000Z,79.08
2019-05-20T07:23:00.000Z,78.89
2019-05-20T07:24:00.000Z,79.13
2019-05-20T07:25:00.000Z,78.87
2019-05-20T07:26:00.000Z,79.02
2019-05-20T07:27:00.000Z,79.39
2019-05-20T07:28:00.000Z,79.04
2019-05-20T07:29:00.000Z,79.38
2019-05-20T07:30:00.000Z,78.71
2019-05-20T07:31:00.000Z,78.74
2019-05-20T07:32:00.000Z,79.21
2019-05-20T07:33:00.000Z,79.29
2019-05-20T07:34:00.000Z,79.40
2019-05-20T07:35:00.000Z,78.93
2019-05-20T07:36:00.000Z,79.34
2019-05-20T07:37:00.000Z,79.38
2019-05-20T07:38:00.000Z,79.43
2019-05-20T07:39:00.000Z,79.23
2019-05-20T07:40:00.000Z,79.36
2019-05-20T07:41:00.000Z,79.31
2019-05-20T07:42:00.000Z,79.21
2019-05-20T07:43:00.000Z,79.08
2019-05-20T07:44:00.000Z,79.36
2019-05-20T07:45:00.000Z,79.59
2019-05-20T07:46:00.000Z,79.29
2019-05-20T07:47:00.000Z,79.72
2019-05-20T07:48:00.000Z,79.74
2019-05-20T07:49:00.000Z,80.13
2019-05-20T07:50:00.000Z,80.14
2019-05-20T07:51:00.000Z,79.90
2019-05-20T07:52:00.000Z,79.75
2019-05-20T07:53:00.000Z,79.65
2019-05-20T07:54:00.000Z,79.65
2019-05-20T07:55:00.000Z,79.74
2019-05-20T07:56:00.000Z,79.66
2019-05-20T07:57:00.000Z,79.45
2019-05-20T07:58:00.000Z,79.33
2019-05-20T07:59:00.000Z,79.52
2019-05-20T08:00:00.000Z,79.79
2019-05-20T08:01:00.000Z,79.81
2019-05-20T08:02:00.000Z,79.58
2019-05-20T08:03:00.000Z,79.21
2019-05-20T08:04:00.000Z,78.86
2019-05-20T08:05:00.000Z,78.99
2019-05-20T08:06:00.000Z,79.11
2019-05-20T08:07:00.000Z,78.92
2019-05-20T08:08:00.000Z,78.83
2019-05-20T08:09:00.000Z,78.89
2019-05-20T08:10:00.000Z,78.55
2019-05-20T08:11:00.000Z,78.71
2019-05-20T08:12:00.000Z,78.47
2019-05-20T08:13:00.000Z,78.23
2019-05-20T08:14:00.000Z,78.33
2019-05-20T08:15:00.000Z,77.61
2019-05-20T08:16:00.000Z,77.83
2019-05-20T08:17:00.000Z,78.05
2019-05-20T08:18:00.000Z,78.32
2019-05-20T08:19:00.000Z,78.19
2019-05-20T08:20:00.000Z,78.49
2019-05-20T08:21:00.000Z,78.01
2019-05-20T08:22:00.000Z,77.78
2019-05-20T08:23:00.000Z,77.56
2019-05-20T08:24:00.000Z,77.43
2019-05-20T08:25:00.000Z,77.23
2019-05-20T08:26:00.000Z,77.15
2019-05-20T08:27:00.000Z,77.71
2019-05-20T08:28:00.000Z,77.65
2019-05-20T08:29:00.000Z,77.34
2019-05-20T08:30:00.000Z,77.29
2019-05-20T08:31:00.000Z,77.39
2019-05-20T08:32:00.000Z,76.66
2019-05-20T08:33:00.000Z,76.55
2019-05-20T08:34:00.000Z,76.67
2019-05-20T08:35:00.000Z,76.58
2019-05-20T08:36:00.000Z,76.73
2019-05-20T08:37:00.000Z,76.24
2019-05-20T08:38:00.000Z,75.81
2019-05-20T08:39:00.000Z,75.96
2019-05-20T08:40:00.000Z,76.10
2019-05-20T08:41:00.000Z,75.49
2019-05-20T08:42:00.000Z,75.65
2019-05-20T08:43:00.000Z,76.00
2019-05-20T08:44:00.000Z,75.95
2019-05-20T08:45:00.000Z,75.79
2019-05-20T08:46:00.000Z,76.00
2019-05-20T08:47:00.000Z,75.46
2019-05-20T08:48:00.000Z,75.14
2019-05-20T08:49:00.000Z,73.52
2019-05-20T08:50:00.000Z,73.67
2019-05-20T08:51:00.000Z,73.59
2019-05-20T08:52:00.000Z,73.31
2019-05-20T08:53:00.000Z,72.65
2019-05-20T08:54:00.000Z,72.16
2019-05-20T08:55:00.000Z,72.55
2019-05-20T08:56:00.000Z,72.35
2019-05-20T08:57:00.000Z,72.66
2019-05-20T08:58:00.000Z,72.90
2019-05-20T08:59:00.000Z,72.31
2019-05-20T09:00:00.000Z,72.34
2019-05-20T09:01:00.000Z,72.36
2019-05-20T09:02:00.000Z,72.20
2019-05-20T09:03:00.000Z,72.13
2019-05-20T09:04:00.000Z,72.40
2019-05-20T09:05:00.000Z,72.42
2019-05-20T09:06:00.000Z,72.61
2019-05-20T09:07:00.000Z,72.94
2019-05-20T09:08:00.000Z,72.76
2019-05-20T09:09:00.000Z,72.70
2019-05-20T09:10:00.000Z,72.58
2019-05-20T09:11:00.000Z,72.85
2019-05-20T09:12:00.000Z,72.19
2019-05-20T09:13:00.000Z,72.68
2019-05-20T09:14:00.000Z,72.00
2019-05-20T09:15:00.000Z,72.07
2019-05-20T09:16:00.000Z,72.19
2019-05-20T09:17:00.000Z,72.54
2019-05-20T09:18:00.000Z,72.57
2019-05-20T09:19:00.000Z,72.47
2019-05-20T09:20:00.000Z,72.47
2019-05-20T09:21:00.000Z,72.79
2019-05-20T09:22:00.000Z,72.40
2019-05-20T09:23:00.000Z,72.63
2019-05-20T09:24:00.000Z,72.57
2019-05-20T09:25:00.000Z,72.68
2019-05-20T09:26:00.000Z,72.73
2019-05-20T09:27:00.000Z,72.82
2019-05-20T09:28:00.000Z,73.04
2019-05-20T09:29:00.000Z,73.02
2019-05-20T09:30:00.000Z,72.90
2019-05-20T09:31:00.000Z,72.63
2019-05-20T09:32:00.000Z,72.61
2019-05-20T09:33:00.000Z,72.07
2019-05-20T09:34:00.000Z,72.56
2019-05-20T09:35:00.000Z,72.53
2019-05-20T09:36:00.000Z,72.62
2019-05-20T09:37:00.000Z,72.34
2019-05-20T09:38:00.000Z,72.21
2019-05-20T09:39:00.000Z,72.26
2019-05-20T09:40:00.000Z,72.57
2019-05-20T09:41:00.000Z,72.60
2019-05-20T09:42:00.000Z,72.36
2019-05-20T09:43:00.000Z,72.75
2019-05-20T09:44:00.000Z,72.68
2019-05-20T09:45:00.000Z,72.72
2019-05-20T09:45:59.000Z,72.49
2019-05-20T09:46:59.000Z,72.50
2019-05-20T09:47:59.000Z,72.15
2019-05-20T09:48:59.000Z,72.07
2019-05-20T09:49:59.000Z,72.22
2019-05-20T09:50:59.000Z,72.01
2019-05-20T09:51:59.000Z,72.24
2019-05-20T09:52:59.000Z,72.39
2019-05-20T09:53:59.000Z,72.08
2019-05-20T09:54:59.000Z,72.31
2019-05-20T09:55:59.000Z,72.27
2019-05-20T09:56:59.000Z,71.83
2019-05-20T09:57:59.000Z,72.06
2019-05-20T09:58:59.000Z,71.88
2019-05-20T09:59:59.000Z,71.87
2019-05-20T10:00:59.000Z,71.61
2019-05-20T10:01:59.000Z,71.98
2019-05-20T10:02:59.000Z,71.70
2019-05-20T10:03:59.000Z,72.06
2019-05-20T10:04:59.000Z,71.97
2019-05-20T10:05:59.000Z,71.88
2019-05-20T10:06:59.000Z,71.55
2019-05-20T10:07:59.000Z,71.70
2019-05-20T10:08:59.000Z,71.08
2019-05-20T10:09:59.000Z,71.08
2019-05-20T10:10:59.000Z,71.21
2019-05-20T10:11:59.000Z,71.05
2019-05-20T10:12:59.000Z,71.03
2019-05-20T10:13:59.000Z,70.73
2019-05-20T10:14:59.000Z,70.77
2019-05-20T10:15:59.000Z,71.25
2019-05-20T10:16:59.000Z,71.23
2019-05-20T10:17:59.000Z,71.14
2019-05-20T10:18:59.000Z,70.74
2019-05-20T10:19:59.000Z,70.96
2019-05-20T10:20:59.000Z,70.79
2019-05-20T10:21:59.000Z,70.93
2019-05-20T10:22:59.000Z,70.43
2019-05-20T10:23:59.000Z,70.65
2019-05-20T10:24:59.000Z,69.88
2019-05-20T10:25:59.000Z,70.24
2019-05-20T10:26:59.000Z,69.71
2019-05-20T10:27:59.000Z,70.00
2019-05-20T10:28:59.000Z,70.02
2019-05-20T10:29:59.000Z,70.22
2019-05-20T10:30:59.000Z,69.99
2019-05-20T10:31:59.000Z,70.41
2019-05-20T10:32:59.000Z,70.20
2019-05-20T10:33:59.000Z,70.33
2019-05-20T10:34:59.000Z,70.38
2019-05-20T10:35:59.000Z,70.26
2019-05-20T10:36:59.000Z,70.63
2019-05-20T10:37:59.000Z,70.64
2019-05-20T10:38:59.000Z,70.90
2019-05-20T10:39:59.000Z,70.65
2019-05-20T10:40:59.000Z,70.73
2019-05-20T10:41:59.000Z,70.72
2019-05-20T10:42:59.000Z,70.42
2019-05-20T10:43:59.000Z,70.97
2019-05-20T10:44:59.000Z,71.37
2019-05-20T10:45:59.000Z,71.60
2019-05-20T10:46:59.000Z,71.83
2019-05-20T10:47:59.000Z,71.65
2019-05-20T10:48:59.000Z,71.86
2019-05-20T10:49:59.000Z,72.06
2019-05-20T10:50:59.000Z,72.34
2019-05-20T10:51:59.000Z,72.25
2019-05-20T10:52:59.000Z,71.82
2019-05-20T10:53:59.000Z,72.10
2019-05-20T10:54:59.000Z,71.65
2019-05-20T10:55:59.000Z,71.80
2019-05-20T10:56:59.000Z,72.01
2019-05-20T10:57:59.000Z,71.46
2019-05-20T10:58:59.000Z,71.64
2019-05-20T10:59:59.000Z,71.92
2019-05-20T11:00:59.000Z,71.71
2019-05-20T11:01:59.000Z,71.89
2019-05-20T11:02:59.000Z,72.18
2019-05-20T11:03:59.000Z,72.11
2019-05-20T11:04:59.000Z,72.13
2019-05-20T11:05:59.000Z,72.66
2019-05-20T11:06:59.000Z,72.31
2019-05-20T11:07:59.000Z,72.79
2019-05-20T11:08:59.000Z,72.80
2019-05-20T11:09:59.000Z,73.12
2019-05-20T11:10:59.000Z,72.90
2019-05-20T11:11:59.000Z,73.07
2019-05-20T11:12:59.000Z,72.41
2019-05-20T11:13:59.000Z,72.64
2019-05-20T11:14:59.000Z,73.05
2019-05-20T11:15:59.000Z,72.73
2019-05-20T11:16:59.000Z,72.59
2019-05-20T11:17:59.000Z,72.73
2019-05-20T11:18:59.000Z,73.02
2019-05-20T11:19:59.000Z,73.00
2019-05-20T11:20:59.000Z,72.84
2019-05-20T11:21:59.000Z,72.73
2019-05-20T11:22:59.000Z,72.41
2019-05-20T11:23:59.000Z,72.29
2019-05-20T11:24:59.000Z,72.69
2019-05-20T11:25:59.000Z,73.07
2019-05-20T11:26:59.000Z,73.17
2019-05-20T11:27:59.000Z,73.15
2019-05-20T11:28:59.000Z,73.21
2019-05-20T11:29:59.000Z,73.37
2019-05-20T11:30:59.000Z,73.59
2019-05-20T11:31:59.000Z,73.71
2019-05-20T11:32:59.000Z,73.28
2019-05-20T11:33:59.000Z,73.71
2019-05-20T11:34:59.000Z,73.88
2019-05-20T11:35:59.000Z,74.21
2019-05-20T11:36:59.000Z,74.17
2019-05-20T11:37:59.000Z,74.19
2019-05-20T11:38:59.000Z,74.13
2019-05-20T11:39:59.000Z,74.32
2019-05-20T11:40:59.000Z,74.68
2019-05-20T11:41:59.000Z,74.62
2019-05-20T11:42:59.000Z,75.22
2019-05-20T11:43:59.000Z,74.98
2019-05-20T11:44:59.000Z,75.74
2019-05-20T11:45:59.000Z,75.96
2019-05-20T11:46:59.000Z,76.15
2019-05-20T11:47:59.000Z,76.27
2019-05-20T11:48:59.000Z,76.63
2019-05-20T11:49:59.000Z,76.61
2019-05-20T11:50:59.000Z,76.77
2019-05-20T11:51:59.000Z,76.77
2019-05-20T11:52:59.000Z,76.78
2019-05-20T11:53:59.000Z,76.53
2019-05-20T11:54:59.000Z,77.02
2019-05-20T11:55:59.000Z,76.83
2019-05-20T11:56:59.000Z,76.82
2019-05-20T11:57:59.000Z,76.71
2019-05-20T11:58:59.000Z,76.78
2019-05-20T11:59:59.000Z,76.59
2019-05-20T12:00:59.000Z,77.14
2019-05-20T12:01:59.000Z,77.36
2019-05-20T12:02:59.000Z,77.16
2019-05-20T12:03:59.000Z,77.48
2019-05-20T12:04:59.000Z,77.61
2019-05-20T12:05:59.000Z,77.47
2019-05-20T12:06:59.000Z,77.45
2019-05-20T12:07:59.000Z,77.50
2019-05-20T12:08:59.000Z,77.19
2019-05-20T12:09:59.000Z,77.32
2019-05-20T12:10:59.000Z,77.39
2019-05-20T12:11:59.000Z,77.14
2019-05-20T12:12:59.000Z,76.99
2019-05-20T12:13:59.000Z,77.35
2019-05-20T12:14:59.000Z,77.57
2019-05-20T12:15:59.000Z,77.30
2019-05-20T12:16:59.000Z,77.23
2019-05-20T12:17:59.000Z,76.75
2019-05-20T12:18:59.000Z,76.89
2019-05-20T12:19:59.000Z,76.70
2019-05-20T12:20:59.000Z,76.98
2019-05-20T12:21:59.000Z,76.99
2019-05-20T12:22:59.000Z,76.76
2019-05-20T12:23:59.000Z,76.65
2019-05-20T12:24:59.000Z,76.32
2019-05-20T12:25:59.000Z,76.24
2019-05-20T12:26:59.000Z,75.52
2019-05-20T12:27:59.000Z,74.63
2019-05-20T12:28:59.000Z,75.15
2019-05-20T12:29:59.000Z,75.21
2019-05-20T12:30:59.000Z,75.04
2019-05-20T12:31:59.000Z,75.34
2019-05-20T12:32:59.000Z,74.75
2019-05-20T12:33:59.000Z,74.43
2019-05-20T12:34:59.000Z,74.29
2019-05-20T12:35:59.000Z,74.29
2019-05-20T12:36:59.000Z,74.34
2019-05-20T12:37:59.000Z,73.96
2019-05-20T12:38:59.000Z,74.33
2019-05-20T12:39:59.000Z,74.52
2019-05-20T12:40:59.000Z,74.56
2019-05-20T12:41:59.000Z,74.51
2019-05-20T12:42:59.000Z,74.10
2019-05-20T12:43:59.000Z,73.95
2019-05-20T12:44:59.000Z,73.49
2019-05-20T12:45:59.000Z,73.51
2019-05-20T12:46:59.000Z,73.22
2019-05-20T12:47:59.000Z,72.87
2019-05-20T12:48:59.000Z,72.27
2019-05-20T12:49:59.000Z,72.12
2019-05-20T12:50:59.000Z,71.54
2019-05-20T12:51:59.000Z,71.98
2019-05-20T12:52:59.000Z,72.18